createdAt,value
2019-03-11T00:02:21.714Z,5.19
2019-03-11T00:04:54.773Z,5.17
2019-03-11T00:07:26.709Z,5.19
2019-03-11T00:09:58.499Z,5.21
2019-03-11T00:12:30.280Z,5.17
2019-03-11T00:15:02.071Z,5.17
2019-03-11T00:17:34.527Z,5.04
2019-03-11T00:20:06.625Z,4.96
2019-03-11T00:22:38.444Z,4.88
2019-03-11T00:25:10.691Z,4.79
2019-03-11T00:27:42.465Z,4.67
2019-03-11T00:30:14.914Z,4.46
2019-03-11T00:32:46.739Z,4.33
2019-03-11T00:35:18.759Z,4.19
2019-03-11T00:37:50.504Z,4.09
2019-03-11T00:40:22.292Z,4.06
2019-03-11T00:42:54.053Z,3.87
2019-03-11T00:45:25.826Z,3.74
2019-03-11T00:48:02.021Z,3.64
2019-03-11T00:50:31.448Z,3.43
2019-03-11T00:53:03.187Z,3.25
2019-03-11T00:55:34.979Z,3.19
2019-03-11T00:58:06.748Z,3.13
2019-03-11T01:00:39.119Z,2.77
2019-03-11T01:03:10.915Z,2.84
2019-03-11T01:05:42.925Z,2.72
2019-03-11T01:08:14.706Z,2.67
2019-03-11T01:10:46.481Z,2.54
2019-03-11T01:13:18.231Z,2.39
2019-03-11T01:15:50.016Z,2.30
2019-03-11T01:18:21.884Z,2.23
2019-03-11T01:20:54.175Z,2.24
2019-03-11T01:23:25.981Z,2.30
2019-03-11T01:25:57.725Z,2.16
2019-03-11T01:28:29.526Z,2.10
2019-03-11T01:31:01.408Z,2.10
2019-03-11T01:33:33.261Z,2.05
2019-03-11T01:36:05.354Z,1.95
2019-03-11T01:38:37.134Z,1.86
2019-03-11T01:41:08.937Z,1.73
2019-03-11T01:43:40.716Z,1.78
2019-03-11T01:46:12.508Z,1.76
2019-03-11T01:48:44.365Z,1.78
2019-03-11T01:51:16.453Z,1.81
2019-03-11T01:53:48.303Z,1.78
2019-03-11T01:56:20.083Z,1.53
2019-03-11T01:58:52.015Z,1.62
2019-03-11T02:01:23.795Z,1.67
2019-03-11T02:03:55.576Z,1.69
2019-03-11T02:06:27.570Z,1.59
2019-03-11T02:08:59.347Z,1.56
2019-03-11T02:11:31.091Z,1.61
2019-03-11T02:14:02.900Z,1.58
2019-03-11T02:16:34.739Z,1.64
2019-03-11T02:19:06.529Z,1.64
2019-03-11T02:21:38.603Z,1.52
2019-03-11T02:24:10.464Z,1.70
2019-03-11T02:26:42.294Z,1.56
2019-03-11T02:29:14.064Z,1.53
2019-03-11T02:31:45.876Z,1.55
2019-03-11T02:34:17.645Z,1.62
2019-03-11T02:36:49.611Z,1.73
2019-03-11T02:39:22.462Z,1.79
2019-03-11T02:41:54.227Z,1.70
2019-03-11T02:44:25.986Z,1.64
2019-03-11T02:46:58.708Z,1.68
2019-03-11T02:49:30.473Z,1.54
2019-03-11T02:52:03.289Z,1.58
2019-03-11T02:54:35.075Z,1.55
2019-03-11T02:57:06.850Z,1.63
2019-03-11T02:59:38.896Z,1.64
2019-03-11T03:02:41.847Z,1.68
2019-03-11T03:05:20.527Z,1.71
2019-03-11T03:07:52.299Z,1.71
2019-03-11T03:10:24.074Z,1.70
2019-03-11T03:12:55.795Z,1.71
2019-03-11T03:15:27.554Z,1.78
2019-03-11T03:17:59.318Z,1.70
2019-03-11T03:20:31.449Z,1.58
2019-03-11T03:23:03.201Z,1.73
2019-03-11T03:25:35.215Z,1.66
2019-03-11T03:28:07.529Z,1.59
2019-03-11T03:30:39.578Z,1.57
2019-03-11T03:33:11.332Z,1.58
2019-03-11T03:35:43.120Z,1.64
2019-03-11T03:38:28.799Z,1.75
2019-03-11T03:40:48.403Z,1.60
2019-03-11T03:43:20.289Z,1.67
2019-03-11T03:45:52.079Z,1.59
2019-03-11T03:48:23.885Z,1.67
2019-03-11T03:50:55.715Z,1.73
2019-03-11T03:53:27.791Z,1.70
2019-03-11T03:55:59.572Z,1.70
2019-03-11T03:58:31.369Z,1.81
2019-03-11T04:01:03.116Z,1.82
2019-03-11T04:03:34.909Z,1.81
2019-03-11T04:06:06.675Z,1.86
2019-03-11T04:08:38.650Z,1.87
2019-03-11T04:11:10.416Z,1.77
2019-03-11T04:13:42.182Z,1.87
2019-03-11T04:16:15.139Z,1.86
2019-03-11T04:19:12.225Z,1.90
2019-03-11T04:21:44.070Z,1.80
2019-03-11T04:24:16.106Z,1.85
2019-03-11T04:26:54.494Z,1.77
2019-03-11T04:29:26.293Z,1.79
2019-03-11T04:31:58.091Z,1.80
2019-03-11T04:34:29.982Z,1.80
2019-03-11T04:37:01.725Z,1.69
2019-03-11T04:39:33.839Z,1.72
2019-03-11T04:42:05.587Z,1.75
2019-03-11T04:44:38.461Z,1.73
2019-03-11T04:47:10.259Z,1.65
2019-03-11T04:49:42.005Z,1.71
2019-03-11T04:52:14.993Z,1.74
2019-03-11T04:54:48.240Z,1.74
2019-03-11T04:57:20.038Z,1.73
2019-03-11T04:59:51.821Z,1.72
2019-03-11T05:02:23.681Z,1.76
2019-03-11T05:04:55.446Z,1.80
2019-03-11T05:07:27.214Z,1.78
2019-03-11T05:09:59.345Z,1.66
2019-03-11T05:12:31.139Z,1.74
2019-03-11T05:15:02.961Z,1.81
2019-03-11T05:17:35.927Z,1.80
2019-03-11T05:20:08.920Z,1.78
2019-03-11T05:22:40.952Z,1.80
2019-03-11T05:25:13.172Z,1.72
2019-03-11T05:27:45.051Z,1.77
2019-03-11T05:30:17.970Z,1.81
2019-03-11T05:32:50.187Z,1.82
2019-03-11T05:35:21.947Z,1.92
2019-03-11T05:37:53.748Z,1.94
2019-03-11T05:40:25.499Z,2.10
2019-03-11T05:42:57.310Z,2.07
2019-03-11T05:45:29.170Z,2.13
2019-03-11T05:48:00.975Z,2.21
2019-03-11T05:50:33.204Z,2.32
2019-03-11T05:53:05.022Z,2.29
2019-03-11T05:55:36.835Z,2.30
2019-03-11T05:58:08.573Z,2.20
2019-03-11T06:00:40.410Z,2.15
2019-03-11T06:03:12.195Z,2.21
2019-03-11T06:05:44.006Z,2.21
2019-03-11T06:08:25.473Z,2.24
2019-03-11T06:10:57.732Z,2.38
2019-03-11T06:13:36.035Z,2.42
2019-03-11T06:16:03.061Z,2.39
2019-03-11T06:18:52.262Z,2.62
2019-03-11T06:21:44.846Z,2.74
2019-03-11T06:24:16.908Z,2.68
2019-03-11T06:26:48.734Z,2.62
2019-03-11T06:29:30.106Z,2.66
2019-03-11T06:31:54.089Z,2.62
2019-03-11T06:34:25.948Z,2.59
2019-03-11T06:36:57.763Z,2.56
2019-03-11T06:39:30.764Z,2.67
2019-03-11T06:42:02.767Z,2.77
2019-03-11T06:44:34.569Z,2.86
2019-03-11T06:47:06.331Z,2.80
2019-03-11T06:49:38.129Z,2.78
2019-03-11T06:52:09.913Z,2.80
2019-03-11T06:54:42.690Z,2.99
2019-03-11T06:57:15.955Z,3.13
2019-03-11T06:59:47.744Z,3.12
2019-03-11T07:02:19.497Z,2.88
2019-03-11T07:04:51.358Z,2.89
2019-03-11T07:07:23.209Z,2.84
2019-03-11T07:09:55.093Z,3.09
2019-03-11T07:12:26.892Z,3.11
2019-03-11T07:14:58.705Z,3.17
2019-03-11T07:17:30.575Z,3.16
2019-03-11T07:20:02.363Z,3.33
2019-03-11T07:22:34.136Z,3.43
2019-03-11T07:25:06.547Z,3.49
2019-03-11T07:27:38.505Z,3.53
2019-03-11T07:30:11.923Z,3.72
2019-03-11T07:32:43.706Z,3.75
2019-03-11T07:35:15.559Z,3.66
2019-03-11T07:37:47.435Z,3.71
2019-03-11T07:40:29.052Z,3.68
2019-03-11T07:42:53.027Z,3.53
2019-03-11T07:45:24.850Z,3.61
2019-03-11T07:47:56.601Z,3.89
2019-03-11T07:50:28.393Z,4.07
2019-03-11T07:53:00.157Z,3.69
2019-03-11T07:55:31.923Z,3.70
2019-03-11T07:58:03.744Z,4.08
2019-03-11T08:00:35.584Z,4.00
2019-03-11T08:03:07.431Z,4.22
2019-03-11T08:05:39.252Z,4.31
2019-03-11T08:08:11.170Z,4.37
2019-03-11T08:10:43.138Z,4.44
2019-03-11T08:13:15.141Z,4.41
2019-03-11T08:15:46.933Z,4.77
2019-03-11T08:18:18.794Z,4.60
2019-03-11T08:20:50.556Z,4.40
2019-03-11T08:23:22.381Z,4.21
2019-03-11T08:25:54.347Z,4.41
2019-03-11T08:28:26.527Z,4.49
2019-03-11T08:30:58.376Z,4.79
2019-03-11T08:33:30.151Z,5.20
2019-03-11T08:36:02.002Z,5.50
2019-03-11T08:38:34.931Z,5.44
2019-03-11T08:41:06.745Z,5.46
2019-03-11T08:43:38.489Z,5.58
2019-03-11T08:46:10.555Z,5.61
2019-03-11T08:48:42.479Z,5.55
2019-03-11T08:51:14.312Z,5.71
2019-03-11T08:53:46.097Z,5.89
2019-03-11T08:56:17.922Z,6.15
2019-03-11T08:58:49.968Z,6.25
2019-03-11T09:01:21.798Z,6.23
2019-03-11T09:03:53.538Z,6.07
2019-03-11T09:06:25.419Z,6.23
2019-03-11T09:08:57.207Z,6.44
2019-03-11T09:11:28.999Z,6.02
2019-03-11T09:14:00.981Z,5.82
2019-03-11T09:16:32.763Z,6.07
2019-03-11T09:19:04.538Z,5.96
2019-03-11T09:21:36.461Z,5.80
2019-03-11T09:24:18.706Z,5.48
2019-03-11T09:26:41.959Z,5.66
2019-03-11T09:29:14.275Z,5.78
2019-03-11T09:31:46.165Z,5.39
2019-03-11T09:34:17.967Z,5.53
2019-03-11T09:36:49.798Z,5.09
2019-03-11T09:39:21.611Z,5.21
2019-03-11T09:41:53.420Z,5.49
2019-03-11T09:44:25.653Z,5.29
2019-03-11T09:46:57.435Z,5.32
2019-03-11T09:49:29.351Z,5.34
2019-03-11T09:52:01.166Z,5.57
2019-03-11T09:54:32.971Z,5.53
2019-03-11T09:57:06.382Z,6.01
2019-03-11T09:59:38.436Z,6.11
2019-03-11T10:02:12.413Z,6.41
2019-03-11T10:04:44.594Z,6.70
2019-03-11T10:07:16.389Z,7.08
2019-03-11T10:09:48.205Z,7.36
2019-03-11T10:12:19.998Z,7.34
2019-03-11T10:14:52.105Z,7.33
2019-03-11T10:17:24.086Z,7.58
2019-03-11T10:19:55.984Z,7.80
2019-03-11T10:22:27.765Z,7.68
2019-03-11T10:24:59.531Z,7.77
2019-03-11T10:27:31.558Z,7.50
2019-03-11T10:30:04.294Z,7.34
2019-03-11T10:32:36.376Z,6.68
2019-03-11T10:35:30.124Z,6.34
2019-03-11T10:37:43.451Z,6.51
2019-03-11T10:40:18.428Z,6.57
2019-03-11T10:42:50.432Z,6.68
2019-03-11T10:45:31.279Z,6.51
2019-03-11T10:47:56.361Z,6.41
2019-03-11T10:50:28.206Z,6.58
2019-03-11T10:53:00.004Z,6.86
2019-03-11T10:55:31.917Z,6.72
2019-03-11T10:58:04.318Z,6.79
2019-03-11T11:00:36.191Z,6.73
2019-03-11T11:03:08.126Z,6.63
2019-03-11T11:05:40.345Z,6.79
2019-03-11T11:08:12.113Z,6.71
2019-03-11T11:10:43.918Z,6.73
2019-03-11T11:13:15.726Z,6.57
2019-03-11T11:15:47.794Z,6.97
2019-03-11T11:18:19.553Z,7.53
2019-03-11T11:20:51.684Z,7.53
2019-03-11T11:23:23.898Z,7.60
2019-03-11T11:25:55.766Z,7.53
2019-03-11T11:28:27.745Z,7.35
2019-03-11T11:30:59.598Z,7.00
2019-03-11T11:33:31.747Z,7.09
2019-03-11T11:36:04.005Z,6.89
2019-03-11T11:38:35.952Z,7.29
2019-03-11T11:41:07.868Z,7.53
2019-03-11T11:43:39.772Z,7.47
2019-03-11T11:46:11.961Z,7.96
2019-03-11T11:48:43.802Z,8.39
2019-03-11T11:51:15.740Z,7.83
2019-03-11T11:53:47.576Z,7.86
2019-03-11T11:56:19.898Z,7.74
2019-03-11T11:58:51.768Z,7.56
2019-03-11T12:01:23.949Z,7.55
2019-03-11T12:03:56.043Z,7.92
2019-03-11T12:06:28.087Z,8.26
2019-03-11T12:08:59.916Z,8.30
2019-03-11T12:11:31.966Z,8.36
2019-03-11T12:14:03.768Z,8.11
2019-03-11T12:16:35.871Z,8.04
2019-03-11T12:19:07.779Z,8.21
2019-03-11T12:21:39.709Z,8.02
2019-03-11T12:24:11.687Z,7.89
2019-03-11T12:26:43.515Z,7.80
2019-03-11T12:29:15.763Z,8.17
2019-03-11T12:31:48.090Z,7.78
2019-03-11T12:34:20.908Z,7.80
2019-03-11T12:36:52.764Z,7.84
2019-03-11T12:39:24.782Z,8.01
2019-03-11T12:41:56.623Z,7.61
2019-03-11T12:44:28.488Z,7.49
2019-03-11T12:47:01.214Z,7.62
2019-03-11T12:49:33.471Z,8.71
2019-03-11T12:52:05.547Z,8.42
2019-03-11T12:54:41.790Z,8.03
2019-03-11T12:57:16.363Z,8.12
2019-03-11T12:59:48.606Z,9.31
2019-03-11T13:02:28.197Z,8.86
2019-03-11T13:05:00.342Z,7.76
2019-03-11T13:07:32.295Z,8.07
2019-03-11T13:10:04.595Z,8.18
2019-03-11T13:12:36.497Z,8.28
2019-03-11T13:15:09.507Z,9.58
2019-03-11T13:17:41.617Z,8.36
2019-03-11T13:20:18.382Z,7.67
2019-03-11T13:22:51.561Z,7.02
2019-03-11T13:25:23.526Z,6.92
2019-03-11T13:27:55.345Z,7.29
2019-03-11T13:30:27.527Z,7.39
2019-03-11T13:33:02.916Z,7.65
2019-03-11T13:35:34.795Z,8.26
2019-03-11T13:38:06.676Z,11.64
2019-03-11T13:40:38.568Z,15.82
2019-03-11T13:43:10.357Z,18.48
2019-03-11T13:45:42.189Z,19.13
2019-03-11T13:48:14.084Z,19.22
2019-03-11T13:50:45.906Z,21.83
2019-03-11T13:53:17.714Z,22.23
2019-03-11T13:55:49.625Z,21.45
2019-03-11T13:58:21.476Z,19.49
2019-03-11T14:00:57.046Z,16.49
2019-03-11T14:03:26.893Z,16.02
2019-03-11T14:05:58.750Z,16.97
2019-03-11T14:08:30.650Z,17.30
2019-03-11T14:11:02.489Z,19.60
2019-03-11T14:13:34.981Z,21.08
2019-03-11T14:16:07.122Z,20.75
2019-03-11T14:18:39.299Z,19.65
2019-03-11T14:21:11.143Z,18.06
2019-03-11T14:23:43.005Z,17.12
2019-03-11T14:26:14.815Z,14.97
2019-03-11T14:28:46.645Z,14.01
2019-03-11T14:31:18.744Z,12.31
2019-03-11T14:33:50.853Z,12.26
2019-03-11T14:36:22.721Z,11.73
2019-03-11T14:38:54.570Z,11.05
2019-03-11T14:41:26.427Z,10.74
2019-03-11T14:43:58.251Z,9.73
2019-03-11T14:46:30.665Z,9.76
2019-03-11T14:49:02.902Z,9.35
2019-03-11T14:51:34.694Z,8.86
2019-03-11T14:54:06.711Z,8.45
2019-03-11T14:56:38.564Z,7.96
2019-03-11T14:59:10.462Z,7.94
2019-03-11T15:01:42.516Z,7.42
2019-03-11T15:04:14.723Z,7.14
2019-03-11T15:06:46.493Z,7.25
2019-03-11T15:09:18.298Z,7.16
2019-03-11T15:11:50.314Z,7.05
2019-03-11T15:14:22.190Z,6.98
2019-03-11T15:16:53.976Z,6.98
2019-03-11T15:19:25.973Z,6.93
2019-03-11T15:21:57.735Z,7.19
2019-03-11T15:24:29.648Z,7.17
2019-03-11T15:27:01.626Z,7.14
2019-03-11T15:29:33.700Z,7.10
2019-03-11T15:32:05.605Z,6.83
2019-03-11T15:34:37.669Z,6.89
2019-03-11T15:37:10.603Z,6.79
2019-03-11T15:39:42.495Z,6.66
2019-03-11T15:42:14.658Z,6.61
2019-03-11T15:44:46.559Z,6.52
2019-03-11T15:47:18.410Z,6.44
2019-03-11T15:49:50.469Z,6.49
2019-03-11T15:52:23.441Z,6.35
2019-03-11T15:54:55.277Z,6.34
2019-03-11T15:57:27.204Z,6.14
2019-03-11T15:59:59.166Z,5.86
2019-03-11T16:02:31.137Z,5.85
2019-03-11T16:05:04.354Z,5.83
2019-03-11T16:07:36.356Z,5.80
2019-03-11T16:10:16.846Z,5.59
2019-03-11T16:12:43.839Z,5.42
2019-03-11T16:15:16.997Z,5.15
2019-03-11T16:17:49.226Z,5.05
2019-03-11T16:20:21.249Z,5.17
2019-03-11T16:22:53.202Z,4.97
2019-03-11T16:25:25.183Z,4.86
2019-03-11T16:27:57.056Z,4.89
2019-03-11T16:30:29.189Z,4.85
2019-03-11T16:33:01.459Z,4.52
2019-03-11T16:35:33.859Z,4.48
2019-03-11T16:38:05.769Z,4.36
2019-03-11T16:40:37.708Z,4.36
2019-03-11T16:43:09.823Z,4.41
2019-03-11T16:45:41.593Z,4.35
2019-03-11T16:48:13.526Z,4.41
2019-03-11T16:50:45.382Z,4.25
2019-03-11T16:53:17.249Z,4.20
2019-03-11T16:55:50.452Z,4.27
2019-03-11T16:58:22.336Z,4.13
2019-03-11T17:00:56.342Z,4.26
2019-03-11T17:03:28.309Z,4.21
2019-03-11T17:06:01.144Z,4.22
2019-03-11T17:08:33.089Z,4.25
2019-03-11T17:11:04.957Z,4.17
2019-03-11T17:13:36.851Z,4.17
2019-03-11T17:16:08.749Z,4.18
2019-03-11T17:18:40.618Z,3.99
2019-03-11T17:21:12.812Z,3.92
2019-03-11T17:23:44.688Z,3.99
2019-03-11T17:26:16.592Z,3.85
2019-03-11T17:28:48.689Z,3.81
2019-03-11T17:31:20.622Z,3.94
2019-03-11T17:33:52.722Z,3.99
2019-03-11T17:36:24.847Z,3.84
2019-03-11T17:38:56.718Z,3.90
2019-03-11T17:41:28.613Z,3.85
2019-03-11T17:44:00.906Z,3.81
2019-03-11T17:46:32.988Z,3.80
2019-03-11T17:49:04.776Z,3.85
2019-03-11T17:51:36.728Z,3.92
2019-03-11T17:54:08.682Z,3.93
2019-03-11T17:56:40.739Z,3.82
2019-03-11T17:59:12.895Z,3.88
2019-03-11T18:01:44.925Z,3.88
2019-03-11T18:04:16.881Z,3.78
2019-03-11T18:06:48.983Z,3.78
2019-03-11T18:09:21.286Z,3.75
2019-03-11T18:11:53.552Z,3.76
2019-03-11T18:14:25.584Z,3.60
2019-03-11T18:16:57.618Z,3.65
2019-03-11T18:19:29.579Z,3.63
2019-03-11T18:22:01.672Z,3.68
2019-03-11T18:24:33.802Z,3.45
2019-03-11T18:27:06.041Z,3.44
2019-03-11T18:29:38.365Z,3.58
2019-03-11T18:32:10.558Z,3.62
2019-03-11T18:34:43.094Z,3.50
2019-03-11T18:37:16.124Z,3.56
2019-03-11T18:39:48.229Z,3.57
2019-03-11T18:42:25.201Z,3.53
2019-03-11T18:44:53.869Z,3.30
2019-03-11T18:47:25.889Z,3.20
2019-03-11T18:49:58.072Z,3.30
2019-03-11T18:52:30.199Z,3.10
2019-03-11T18:55:02.022Z,3.22
2019-03-11T18:57:35.398Z,3.16
2019-03-11T19:00:09.859Z,3.27
2019-03-11T19:02:42.142Z,3.07
2019-03-11T19:05:14.936Z,3.14
2019-03-11T19:07:47.359Z,3.20
2019-03-11T19:10:19.438Z,3.19
2019-03-11T19:12:51.350Z,3.23
2019-03-11T19:15:23.425Z,3.02
2019-03-11T19:17:55.431Z,3.11
2019-03-11T19:20:27.492Z,3.05
2019-03-11T19:22:59.967Z,3.13
2019-03-11T19:25:31.911Z,3.00
2019-03-11T19:28:03.859Z,2.95
2019-03-11T19:30:35.765Z,2.95
2019-03-11T19:33:07.756Z,3.01
2019-03-11T19:35:40.171Z,2.82
2019-03-11T19:38:12.898Z,2.83
2019-03-11T19:40:44.934Z,2.91
2019-03-11T19:43:18.779Z,2.92
2019-03-11T19:45:50.698Z,3.03
2019-03-11T19:48:22.755Z,3.07
2019-03-11T19:50:54.779Z,2.98
2019-03-11T19:53:27.191Z,2.82
2019-03-11T19:55:59.146Z,2.72
2019-03-11T19:58:31.054Z,2.89
2019-03-11T20:01:02.900Z,2.83
2019-03-11T20:03:35.419Z,2.85
2019-03-11T20:06:07.344Z,2.89
2019-03-11T20:08:39.786Z,2.82
2019-03-11T20:11:11.763Z,2.84
2019-03-11T20:13:44.865Z,2.82
2019-03-11T20:16:16.744Z,2.64
2019-03-11T20:18:48.646Z,2.72
2019-03-11T20:21:20.611Z,2.72
2019-03-11T20:23:52.951Z,2.73
2019-03-11T20:26:24.878Z,2.79
2019-03-11T20:28:56.913Z,2.65
2019-03-11T20:31:28.983Z,2.66
2019-03-11T20:34:01.537Z,2.69
2019-03-11T20:36:34.420Z,2.66
2019-03-11T20:39:08.197Z,2.60
2019-03-11T20:41:41.889Z,2.65
2019-03-11T20:44:14.467Z,2.50
2019-03-11T20:46:46.811Z,2.48
2019-03-11T20:49:19.072Z,2.59
2019-03-11T20:51:51.462Z,2.50
2019-03-11T20:54:24.429Z,2.50
2019-03-11T20:56:56.594Z,2.59
2019-03-11T20:59:28.592Z,2.57
2019-03-11T21:02:00.621Z,2.56
2019-03-11T21:04:32.920Z,2.43
2019-03-11T21:07:05.045Z,2.51
2019-03-11T21:09:37.204Z,2.52
2019-03-11T21:12:09.789Z,2.56
2019-03-11T21:14:41.701Z,2.61
2019-03-11T21:17:25.274Z,2.57
2019-03-11T21:19:48.585Z,2.54
2019-03-11T21:22:21.170Z,2.50
2019-03-11T21:24:59.523Z,2.64
2019-03-11T21:27:27.445Z,2.58
2019-03-11T21:29:59.816Z,2.65
2019-03-11T21:32:31.817Z,2.67
2019-03-11T21:35:04.282Z,2.73
2019-03-11T21:37:37.730Z,2.86
2019-03-11T21:40:12.149Z,2.89
2019-03-11T21:42:44.028Z,2.94
2019-03-11T21:45:16.146Z,2.82
2019-03-11T21:47:50.742Z,2.73
2019-03-11T21:50:23.473Z,2.70
2019-03-11T21:52:55.561Z,2.81
2019-03-11T21:55:28.613Z,2.79
2019-03-11T21:58:12.432Z,2.75
2019-03-11T22:00:35.425Z,2.71
2019-03-11T22:03:07.640Z,2.88
2019-03-11T22:05:39.564Z,2.79
2019-03-11T22:08:11.456Z,2.84
2019-03-11T22:10:43.851Z,2.87
2019-03-11T22:13:15.728Z,2.94
2019-03-11T22:15:47.864Z,2.97
2019-03-11T22:18:20.002Z,2.79
2019-03-11T22:20:51.978Z,2.81
2019-03-11T22:23:24.254Z,2.90
2019-03-11T22:25:56.453Z,2.90
2019-03-11T22:28:28.352Z,2.80
2019-03-11T22:31:00.210Z,2.89
2019-03-11T22:33:34.750Z,2.90
2019-03-11T22:36:05.467Z,2.94
2019-03-11T22:38:37.793Z,2.92
2019-03-11T22:41:09.925Z,2.96
2019-03-11T22:43:41.969Z,2.96
2019-03-11T22:46:13.768Z,2.93
2019-03-11T22:48:45.635Z,2.97
2019-03-11T22:51:17.433Z,3.02
2019-03-11T22:53:51.515Z,3.06
2019-03-11T22:56:23.143Z,2.95
2019-03-11T22:58:54.988Z,2.95
2019-03-11T23:01:28.156Z,2.95
2019-03-11T23:04:00.047Z,3.05
2019-03-11T23:06:31.866Z,2.99
2019-03-11T23:09:04.268Z,3.07
2019-03-11T23:11:37.698Z,2.99
2019-03-11T23:14:09.534Z,3.06
2019-03-11T23:16:41.390Z,2.99
2019-03-11T23:19:13.376Z,2.93
2019-03-11T23:21:45.198Z,2.97
2019-03-11T23:24:17.121Z,2.92
2019-03-11T23:26:49.382Z,2.89
2019-03-11T23:29:21.246Z,2.98
2019-03-11T23:31:53.136Z,2.96
2019-03-11T23:34:25.025Z,2.97
2019-03-11T23:36:56.836Z,2.97
2019-03-11T23:39:28.875Z,3.09
2019-03-11T23:42:00.666Z,3.13
2019-03-11T23:44:32.497Z,3.02
2019-03-11T23:47:04.312Z,2.94
2019-03-11T23:49:36.171Z,2.86
2019-03-11T23:52:08.054Z,2.97
2019-03-11T23:54:39.871Z,2.98
2019-03-11T23:57:11.707Z,2.98
2019-03-11T23:59:43.582Z,3.07
